Wednesday, February 20, 2019, 2:12 PM CST
Back to Local

KBTR, Baton Rouge Metro Ryan Field

Location: Baton Rouge, LA, United States Lat: 30.533
Local Time: 2:12 PM CST (20:12 GMT) Lon: -91.15
Time Zone: US/Central Elev: 68 ft

Show me the last for .
Show Decoded

2019-02-20 13:53 METAR KBTR 201953Z 28007KT 8SM BKN008 OVC012 14/12 A2992 RMK AO2 SLP131
                 T01390122 =
2019-02-20 12:53 METAR KBTR 201853Z 30005KT 5SM BR BKN008 OVC012 15/14 A2993 RMK AO2 SLP134
                 T01500139 =
2019-02-20 12:06 METAR KBTR 201806Z 29005KT 6SM BR OVC008 14/14 A2993 RMK AO2 T01440139 =
2019-02-20 11:53 METAR KBTR 201753Z 29005KT 4SM BR OVC004 14/13 A2993 RMK AO2 RAE00 SLP135 P0000
                 60022 T01440133 10222 20139 50018 =
2019-02-20 11:37 METAR KBTR 201737Z 31005KT 4SM BR OVC004 14/14 A2994 RMK AO2 RAE00 P0000
                 T01440139 =
2019-02-20 10:53 METAR KBTR 201653Z 30006KT 1SM -RA BR OVC004 15/15 A2994 RMK AO2 WSHFT 1541
                 RAB41 SLP138 P0000 T01500150 RVRNO =
2019-02-20 10:50 METAR KBTR 201650Z 29006KT 1SM -RA BR OVC004 16/15 A2994 RMK AO2 WSHFT 1541
                 RAB41 P0000 RVRNO =
2019-02-20 10:32 METAR KBTR 201632Z 30010G17KT 3SM BR OVC005 16/14 A2993 RMK AO2 WSHFT 1541 CIG
                 004V008 T01560144 =
2019-02-20 10:14 METAR KBTR 201614Z 29010KT 1 3/4SM BR OVC005 16/15 A2992 =
2019-02-20 09:55 METAR KBTR 201555Z 30011G21KT 4SM BR OVC007 17/17 A2990 RMK AO2 WSHFT 1541 LTG
                 DSNT SE CIG 003V009 T01720167 =
2019-02-20 09:53 METAR KBTR 201553Z 30011G21KT 2 1/2SM BR OVC007 18/17 A2990 RMK AO2 WSHFT 1440
                 LTG DSNT SE RAE34 SLP123 P0008 T01780167 =
2019-02-20 08:55 METAR KBTR 201455Z 24012KT 2 1/2SM RA BR OVC007 22/21 A2988 =
2019-02-20 08:53 METAR KBTR 201453Z 25014KT 3SM -RA BR OVC007 22/21 A2988 RMK AO2 LTG DSNT E AND
                 SE RAB1354 SLP117 P0003 60014 T02220211 53016 =
2019-02-20 07:53 METAR KBTR 201353Z 18012KT 3SM BR OVC008 22/21 A2985 RMK AO2 LTG DSNT SE RAE43
                 SLP107 P0000 T02220211 =
2019-02-20 06:53 METAR KBTR 201253Z 16015KT 5SM -RA BR BKN009 OVC013 22/21 A2983 RMK AO2 TSB09E27
                 CIG 006V011 SLP101 P0011 T02220211 =
2019-02-20 06:49 METAR KBTR 201249Z 16014KT 5SM -RA BR BKN009 OVC013 22/21 A2983 RMK AO2 TSB09E27
                 CIG 006V011 P0011 =
2019-02-20 06:27 METAR KBTR 201227Z 18012KT 5SM VCTS -RA BR BKN008 BKN013 OVC020 22/21 A2983 RMK
                 AO2 LTG DSNT NE TSB09E27 P0011 T02170211 =
2019-02-20 06:16 METAR KBTR 201216Z 17013G22KT 2SM +TSRA BR OVC010 22/21 A2983 RMK AO2 TSB09
                 P0006 T02170211 =
2019-02-20 06:10 METAR KBTR 201210Z 17015G20KT 3SM TSRA BR OVC010 22/21 A2983 RMK AO2 TSB09 P0004
                 T02220211 =
2019-02-20 05:53 METAR KBTR 201153Z 17014G24KT 6SM VCTS -RA BR OVC010 22/21 A2982 RMK AO2 LTG
                 DSNT S RAE1054B17 CIG 007V013 SLP099 P0000 60004 70007 T02220211 10222 20183
                 55007 =
2019-02-20 04:58 METAR KBTR 201058Z 17013KT 8SM BKN008 BKN019 OVC024 22/21 A2982 RMK AO2 LTG DSNT
                 N RAE54 CIG 006V011 P0000 T02220211 =
2019-02-20 04:53 METAR KBTR 201053Z AUTO 17013KT 8SM VCTS -RA BKN008 BKN019 OVC024 22/21 A2982
                 RMK AO2 LTG DSNT N RAB08 TSE27 CIG 006V013 SLP097 P0004 T02220211 =
2019-02-20 04:33 METAR KBTR 201033Z AUTO 16011KT 3SM VCTS RA BR OVC009 22/21 A2982 RMK AO2 LTG
                 DSNT W AND NW RAB08 TSE27 CIG 006V012 P0001 T02170211 =
2019-02-20 03:53 METAR KBTR 200953Z AUTO 17011KT 5SM BR OVC009 22/21 A2983 RMK AO2 LTG DSNT SW
                 RAE01B18E27 CIG 007V011 SLP101 P0000 T02220211 =
2019-02-20 02:53 METAR KBTR 200853Z AUTO 16011G21KT 6SM -RA BR OVC008 22/21 A2985 RMK AO2 RAB08
                 CIG 006V011 SLP105 P0000 60000 T02220211 56009 =
2019-02-20 01:53 METAR KBTR 200753Z AUTO 16011KT 6SM BR OVC009 22/21 A2986 RMK AO2 CIG 007V013
                 SLP109 T02170211 =
2019-02-20 01:39 METAR KBTR 200739Z AUTO 16009KT 5SM BR OVC009 22/21 A2986 RMK AO2 CIG 007V012
                 T02170206 =
2019-02-20 00:53 METAR KBTR 200653Z AUTO 14007KT 4SM BR OVC011 20/19 A2986 RMK AO2
                 RAB0556E06B32E50 SLP109 P0000 T02000194 =
2019-02-20 00:04 METAR KBTR 200604Z AUTO 13007KT 3SM -RA BR SCT004 OVC011 18/18 A2987 RMK AO2
                 RAB0556 P0000 T01830183 =
2019-02-19 23:53 METAR KBTR 200553Z AUTO 11007KT 2 1/2SM BR SCT004 OVC011 18/18 A2987 RMK AO2
                 RAE0456 CIG 007V012 SLP115 P0000 60003 T01830178 10183 20122 401830117 58006 =
2019-02-19 23:25 METAR KBTR 200525Z AUTO 12005KT 3SM BR BKN005 OVC010 18/18 A2988 RMK AO2 RAE0456
                 CIG 003V008 P0000 T01780178 =
2019-02-19 22:53 METAR KBTR 200453Z 12004KT 1SM -RA BR OVC002 17/17 A2988 RMK AO2 RAB47 SLP117
                 P0000 T01670167 RVRNO =
2019-02-19 21:53 METAR KBTR 200353Z 09006KT 1SM BR OVC002 15/14 A2989 RMK AO2 RAE27 SLP121 P0002
                 T01500144 RVRNO =
2019-02-19 21:46 METAR KBTR 200346Z 09006KT 1 1/4SM BR OVC002 15/14 A2989 RMK AO2 RAE27 P0001
                 T01500144 =
2019-02-19 21:34 METAR KBTR 200334Z 09005KT 2 1/2SM BR OVC002 14/14 A2990 RMK AO2 RAE27 P0001
                 T01440144 =
2019-02-19 20:53 METAR KBTR 200253Z 09005KT 1SM -RA BR OVC002 14/14 A2989 RMK AO2 RAE02B26 SLP121
                 P0000 60001 T01390139 56007 RVRNO =
2019-02-19 19:53 METAR KBTR 200153Z 07006KT 1 1/4SM -RA BR OVC002 13/13 A2989 RMK AO2 RAB15
                 SLP122 P0001 T01280128 =
2019-02-19 18:53 METAR KBTR 200053Z 07009KT 1 1/2SM BR OVC003 12/12 A2990 RMK AO2 SLP123
                 T01220122 =
2019-02-19 18:33 METAR KBTR 200033Z 07010KT 1 1/2SM BR OVC003 12/12 A2990 RMK AO2 T01220117 =
2019-02-19 18:15 METAR KBTR 200015Z 07007KT 2 1/2SM BR OVC003 12/12 A2991 RMK AO2 T01220117 =
2019-02-19 18:04 METAR KBTR 200004Z 06009KT 3SM BR OVC003 12/12 A2991 RMK AO2 T01220117 =
2019-02-19 17:53 METAR KBTR 192353Z 06008KT 2 1/2SM BR OVC003 12/12 A2991 RMK AO2 RAB36E46 SLP128
                 P0000 60000 T01220117 10161 20122 56018 =
2019-02-19 17:32 METAR KBTR 192332Z 05008KT 2SM BR OVC003 12/12 A2992 RMK AO2 T01220117 =
2019-02-19 17:06 METAR KBTR 192306Z 06013KT 2SM BR OVC005 12/12 A2992 RMK AO2 T01220117 =
2019-02-19 16:59 METAR KBTR 192259Z 07010KT 1 3/4SM BR OVC005 12/12 A2992 =
2019-02-19 16:53 METAR KBTR 192253Z 07007KT 2SM BR OVC005 12/12 A2992 RMK AO2 RAE09 SLP132 P0000
                 T01220117 =
2019-02-19 16:34 METAR KBTR 192234Z 06010KT 2SM BR OVC005 12/11 A2993 RMK AO2 RAE09 P0000
                 T01220111 =
2019-02-19 15:53 METAR KBTR 192153Z 06011KT 9SM -RA OVC008 12/11 A2994 RMK AO2 RAB35 SLP137 P0000
                 T01220111 =
2019-02-19 15:02 METAR KBTR 192102Z 07015KT 10SM OVC009 13/10 A2996 RMK AO2 T01280100 =
2019-02-19 14:53 METAR KBTR 192053Z 07012G19KT 10SM OVC011 13/11 A2997 RMK AO2 RAE1956B24E34
                 SLP146 P0000 60000 T01280106 57030 =

Support USWX by starting your Amazon purchase here.